Anniston, AL (36207)

11:29 PM CDT on July 01, 2015 (GMT -0500)
Choccolocco Community | | Change Station
CLOSE
Current Station
Personal Weather Station
Location: Anniston, AL
Elevation: 865 ft
Nearby Weather Stations

Elev 865 ft 33.69 °N, 85.72 °W | Updated 19 seconds ago

Partly Cloudy
Partly Cloudy
68.1 °F
Feels Like 68.1 °F
N
0.0
Wind Variable Wind from NNW
Gusts 0.0 mph

Today
High -- | Low -- °F
--% Chance of Precip.
Yesterday
High -- | Low -- °F
Precip. -- in
5:36 AM 7:57 PM
Full, 100% visible
Pressure 30.04 in
Visibility 10.0 miles
Clouds Few 11000 ft
Dew Point 67 °F
Humidity 97%
Rainfall 0.49 in
Snow Depth Not available.
UV 0 out of 12
Pollen 2.80 out of 12
Air Quality Not available.
Flu Activity Not available.
METAR KANB 020353Z AUTO 27004KT 10SM FEW110 22/21 A3006 RMK AO2 SLP171 T02170206

More Conditions Fewer Conditions

Pressure 30.04 in
Visibility 10.0 miles
Clouds Few 11000 ft
Dew Point 67 °F
Humidity 97%
Rainfall 0.49 in
Snow Depth Not available.
UV 0 out of 12
Pollen 2.80 out of 12
Air Quality Not available.
Flu Activity Not available.
METAR KANB 020353Z AUTO 27004KT 10SM FEW110 22/21 A3006 RMK AO2 SLP171 T02170206

More Conditions Fewer Conditions

10-Day Weather Forecast

×

Almanac

Astronomy

Jul. 01, 2015 Rise Set
Actual Time
Civil Twilight
Nautical Twilight
Astronomical Twilight
Moon
Length of Visible Light
Length of Day
Tomorrow will be .
, % of the Moon is Illuminated

Today's Extremes

State Highs State Lows

Community

WunderPhotos

Upload Photos

1,834,412 photos uploaded!

WunderBlogs® & News

Nearby

Air Quality

  Air Quality AQ Index Pollutant
Not available.

Snow Depth

Station Depth Elevation

Earthquake Activity

City Distance Mag. Time & Date
Minimum magnitude displayed is 2.5.

Coastal Water Temperatures

Place Temperature

Stations

Nearby Weather Stations

Station Location Temp. Windchill Dew Point Humidity Wind Precip. Elev Updated Type